Time;durP1;ratioP1;P1;durP2;ratioP2;P2;SDS_P1;SDS_P2;PMS_P1;PMS_P2;Temp;Humidity;BMP_temperature;BMP_pressure;BME280_temperature;BME280_humidity;BME280_pressure;Samples;Min_cycle;Max_cycle;Signal;HPM_P1;HPM_P2
2022/12/18 00:00:49;;;;;;;79.95;31.27;;;-3.60;99.90;;;;;;4995192;28;20109;-62
2022/12/18 00:03:16;;;;;;;68.32;28.90;;;-3.60;99.90;;;;;;4994481;28;20053;-61
2022/12/18 00:05:50;;;;;;;67.63;28.92;;;-3.60;99.90;;;;;;4994700;28;20045;-62
2022/12/18 00:08:17;;;;;;;72.18;29.33;;;-3.60;99.90;;;;;;5012496;28;20042;-62
2022/12/18 00:10:45;;;;;;;70.07;30.10;;;-3.60;99.90;;;;;;5011764;28;20053;-61
2022/12/18 00:13:13;;;;;;;64.25;28.38;;;-3.60;99.90;;;;;;5012787;28;20041;-61
2022/12/18 00:15:41;;;;;;;77.60;31.20;;;-3.70;99.90;;;;;;4994895;28;20057;-61
2022/12/18 00:18:08;;;;;;;62.17;25.98;;;-3.60;99.90;;;;;;4994367;28;20050;-62
2022/12/18 00:20:37;;;;;;;70.50;28.45;;;-3.70;99.90;;;;;;5010378;28;20116;-61
2022/12/18 00:23:05;;;;;;;71.80;27.88;;;-3.70;99.90;;;;;;5004583;28;20088;-62
2022/12/18 00:25:34;;;;;;;62.80;28.27;;;-3.60;99.90;;;;;;5032025;28;20051;-61
2022/12/18 00:28:01;;;;;;;69.50;28.45;;;-3.60;99.90;;;;;;5012524;28;20067;-61
2022/12/18 00:30:28;;;;;;;71.40;30.15;;;-3.70;99.90;;;;;;5013759;28;20142;-61
2022/12/18 00:32:56;;;;;;;72.43;29.13;;;-3.60;99.90;;;;;;5032133;28;20049;-61
2022/12/18 00:35:23;;;;;;;68.20;28.10;;;-3.70;99.90;;;;;;5031868;28;20559;-61
2022/12/18 00:37:50;;;;;;;65.78;28.50;;;-3.70;99.90;;;;;;5013781;28;20049;-61
2022/12/18 00:40:17;;;;;;;68.20;29.25;;;-3.70;99.90;;;;;;5031973;28;20056;-61
2022/12/18 00:42:58;;;;;;;61.90;28.48;;;-3.70;99.90;;;;;;5014182;28;20057;-61
2022/12/18 00:45:25;;;;;;;72.88;29.63;;;-3.70;99.90;;;;;;5013847;28;20287;-61
2022/12/18 00:47:52;;;;;;;72.80;29.48;;;-3.70;99.90;;;;;;5014431;28;20111;-62
2022/12/18 00:50:20;;;;;;;60.15;28.60;;;-3.80;99.90;;;;;;5014209;28;20449;-62
2022/12/18 00:52:47;;;;;;;66.80;28.33;;;-3.70;99.90;;;;;;5013566;28;20107;-61
2022/12/18 00:55:15;;;;;;;76.10;29.50;;;-3.70;99.90;;;;;;5033625;28;20068;-62
2022/12/18 00:57:42;;;;;;;72.97;27.95;;;-3.70;99.90;;;;;;5018463;28;20053;-62
2022/12/18 01:00:12;;;;;;;67.13;28.50;;;-3.70;99.90;;;;;;5035079;28;20053;-61
2022/12/18 01:02:40;;;;;;;65.18;26.65;;;-3.80;99.90;;;;;;5018275;28;20456;-60
2022/12/18 01:05:08;;;;;;;69.55;26.75;;;-3.80;99.90;;;;;;5033792;28;20108;-62
2022/12/18 01:07:36;;;;;;;66.68;27.45;;;-3.90;99.90;;;;;;5035279;28;20050;-60
2022/12/18 01:10:05;;;;;;;64.13;26.30;;;-3.90;99.90;;;;;;5035356;28;20057;-62
2022/12/18 01:12:32;;;;;;;62.72;26.95;;;-3.90;99.90;;;;;;5035203;28;20056;-62
2022/12/18 01:14:59;;;;;;;59.60;24.40;;;-3.90;99.90;;;;;;5017462;28;20370;-61
2022/12/18 01:17:25;;;;;;;64.47;27.02;;;-4.00;99.90;;;;;;5017702;28;20045;-62
2022/12/18 01:19:52;;;;;;;53.00;25.67;;;-4.00;99.90;;;;;;5034961;28;20053;-63
2022/12/18 01:22:19;;;;;;;59.58;25.45;;;-4.00;99.90;;;;;;5017525;28;20525;-62
2022/12/18 01:24:47;;;;;;;63.13;26.38;;;-4.00;99.90;;;;;;5035368;28;20052;-62
2022/12/18 01:27:14;;;;;;;57.92;25.88;;;-4.00;99.90;;;;;;5030171;28;20045;-62
2022/12/18 01:29:42;;;;;;;51.88;25.50;;;-4.00;99.90;;;;;;5015402;28;20049;-62
2022/12/18 01:32:09;;;;;;;56.97;26.05;;;-4.10;99.90;;;;;;5052962;28;20051;-62
2022/12/18 01:34:36;;;;;;;60.10;25.30;;;-4.20;99.90;;;;;;5053025;28;20037;-62
2022/12/18 01:37:04;;;;;;;53.78;23.92;;;-4.20;99.90;;;;;;5018060;28;20107;-62
2022/12/18 01:39:32;;;;;;;62.15;26.30;;;-4.30;99.90;;;;;;5021574;28;20103;-61
2022/12/18 01:42:05;;;;;;;57.83;24.15;;;-4.30;99.90;;;;;;5025443;28;20408;-62
2022/12/18 01:44:55;;;;;;;63.30;27.60;;;-4.40;99.90;;;;;;5023722;28;20057;-62
2022/12/18 01:47:25;;;;;;;59.72;26.38;;;-4.50;99.90;;;;;;5023871;28;20053;-62
2022/12/18 01:49:53;;;;;;;61.53;28.05;;;-4.60;99.90;;;;;;5017226;28;20482;-62
2022/12/18 01:52:21;;;;;;;63.45;25.95;;;-4.60;99.90;;;;;;5022042;28;20057;-62
2022/12/18 01:54:49;;;;;;;65.47;27.05;;;-4.70;99.90;;;;;;5014061;28;20161;-62
2022/12/18 01:57:18;;;;;;;61.90;27.60;;;-4.70;99.90;;;;;;5033990;28;20041;-62
2022/12/18 01:59:48;;;;;;;63.17;25.85;;;-4.80;99.90;;;;;;5034432;28;20056;-62
2022/12/18 02:02:16;;;;;;;74.20;27.05;;;-4.90;99.90;;;;;;5032176;28;20045;-61
2022/12/18 02:04:43;;;;;;;68.38;27.55;;;-4.90;99.90;;;;;;5035825;28;20107;-61
2022/12/18 02:07:27;;;;;;;59.45;25.67;;;-4.90;99.90;;;;;;5053543;28;20052;-61
2022/12/18 02:10:00;;;;;;;63.70;27.15;;;-5.00;99.90;;;;;;5013696;28;20576;-60
2022/12/18 02:12:37;;;;;;;63.00;24.98;;;-5.00;99.90;;;;;;5031410;28;20099;-61
2022/12/18 02:15:08;;;;;;;61.42;27.45;;;-5.00;99.90;;;;;;5034599;28;20555;-61
2022/12/18 02:17:41;;;;;;;64.32;26.75;;;-5.10;99.90;;;;;;5031789;28;20065;-62
2022/12/18 02:20:15;;;;;;;66.88;27.95;;;-5.10;99.90;;;;;;5031308;28;20050;-62
2022/12/18 02:22:51;;;;;;;58.90;25.85;;;-5.20;99.90;;;;;;5035636;28;20052;-61
2022/12/18 02:25:30;;;;;;;65.18;26.17;;;-5.20;99.90;;;;;;5053606;28;20045;-61
2022/12/18 02:28:01;;;;;;;59.33;25.33;;;-5.20;99.90;;;;;;5031618;28;20053;-62
2022/12/18 02:30:31;;;;;;;56.88;25.13;;;-5.30;99.90;;;;;;5015381;28;20053;-62
2022/12/18 02:32:59;;;;;;;60.90;24.85;;;-5.30;99.90;;;;;;5018570;28;20053;-62
2022/12/18 02:35:30;;;;;;;57.55;24.65;;;-5.40;99.90;;;;;;5027825;28;20053;-62
2022/12/18 02:37:58;;;;;;;63.42;25.38;;;-5.40;99.90;;;;;;5029220;28;20103;-62
2022/12/18 02:40:28;;;;;;;59.45;25.92;;;-5.40;99.90;;;;;;5033073;28;20117;-62
2022/12/18 02:42:55;;;;;;;58.30;24.33;;;-5.50;99.90;;;;;;5015160;28;20057;-61
2022/12/18 02:45:23;;;;;;;68.45;28.73;;;-5.50;99.90;;;;;;5051954;28;20563;-62
2022/12/18 02:47:51;;;;;;;62.88;27.38;;;-5.50;99.90;;;;;;5028683;28;20548;-63
2022/12/18 02:50:30;;;;;;;69.72;27.48;;;-5.50;99.90;;;;;;5020433;28;20395;-62
2022/12/18 02:53:10;;;;;;;67.65;28.23;;;-5.50;99.90;;;;;;5026542;28;20041;-63
2022/12/18 02:55:53;;;;;;;63.58;28.55;;;-5.50;99.90;;;;;;5030411;28;21479;-62
2022/12/18 02:58:27;;;;;;;59.35;26.02;;;-5.50;99.90;;;;;;5024783;28;20517;-62
2022/12/18 03:01:01;;;;;;;65.63;27.33;;;-4.30;99.90;;;;;;5028333;28;20098;-62
2022/12/18 03:03:33;;;;;;;69.72;26.88;;;-5.50;99.90;;;;;;5015550;28;20099;-62
2022/12/18 03:06:05;;;;;;;70.78;28.73;;;-5.50;99.90;;;;;;5027594;28;20049;-63
2022/12/18 03:08:37;;;;;;;66.00;27.42;;;-5.50;99.90;;;;;;5033566;28;20104;-61
2022/12/18 03:11:06;;;;;;;68.82;27.63;;;-5.50;99.90;;;;;;5033875;28;20045;-61
2022/12/18 03:13:36;;;;;;;77.22;31.63;;;-5.50;99.90;;;;;;5026758;28;20100;-61
2022/12/18 03:16:08;;;;;;;79.75;30.85;;;-5.50;99.90;;;;;;5033810;28;20041;-62
2022/12/18 03:18:39;;;;;;;64.45;27.92;;;-5.50;99.90;;;;;;5014712;28;20053;-61
2022/12/18 03:21:08;;;;;;;69.75;30.60;;;-5.40;99.90;;;;;;5032835;28;20053;-62
2022/12/18 03:23:42;;;;;;;73.32;29.90;;;-5.50;99.90;;;;;;5032876;28;20126;-62
2022/12/18 03:26:13;;;;;;;75.45;31.10;;;-5.50;99.90;;;;;;5031390;28;20560;-62
2022/12/18 03:28:46;;;;;;;66.38;28.33;;;-5.20;99.90;;;;;;5024186;28;20045;-61
2022/12/18 03:31:16;;;;;;;72.88;28.70;;;-5.60;99.90;;;;;;5032389;28;20176;-61
2022/12/18 03:33:47;;;;;;;75.77;30.17;;;-5.60;99.90;;;;;;5033010;28;20053;-60
2022/12/18 03:36:15;;;;;;;71.07;30.13;;;-5.60;99.90;;;;;;5033358;28;20049;-60
2022/12/18 03:38:42;;;;;;;79.25;32.78;;;-5.60;99.90;;;;;;5019105;28;21368;-61
2022/12/18 03:41:17;;;;;;;74.88;30.92;;;-5.60;99.90;;;;;;5029901;28;20444;-63
2022/12/18 03:43:50;;;;;;;66.63;28.08;;;-5.70;99.90;;;;;;5031377;28;20041;-62
2022/12/18 03:46:28;;;;;;;75.97;30.90;;;-5.60;99.90;;;;;;5050714;28;20045;-61
2022/12/18 03:49:02;;;;;;;78.32;30.10;;;-5.60;99.90;;;;;;5024208;28;20409;-62
2022/12/18 03:51:38;;;;;;;80.20;31.10;;;-5.70;99.90;;;;;;5032979;28;20080;-64
2022/12/18 03:54:07;;;;;;;74.20;31.75;;;-5.70;99.90;;;;;;5014081;28;20042;-61
2022/12/18 03:56:38;;;;;;;70.85;28.92;;;-5.70;99.90;;;;;;5033222;28;20045;-62
2022/12/18 03:59:06;;;;;;;65.40;29.42;;;-5.70;99.90;;;;;;5025371;28;20049;-62
2022/12/18 04:01:39;;;;;;;65.68;28.85;;;-5.70;99.90;;;;;;5050866;28;20091;-62
2022/12/18 04:04:07;;;;;;;75.88;29.60;;;-5.70;99.90;;;;;;5026834;28;20455;-62
2022/12/18 04:06:36;;;;;;;81.95;31.88;;;-5.80;99.90;;;;;;5020092;28;20049;-62
2022/12/18 04:09:04;;;;;;;69.43;31.13;;;-5.80;99.90;;;;;;5032283;28;20107;-62
2022/12/18 04:11:32;;;;;;;71.25;28.83;;;-5.80;99.90;;;;;;5025831;28;20049;-64
2022/12/18 04:13:59;;;;;;;78.45;29.67;;;-5.80;99.90;;;;;;5030965;28;20098;-61
2022/12/18 04:16:26;;;;;;;63.72;28.40;;;-5.80;99.90;;;;;;5013577;28;20049;-61
2022/12/18 04:18:55;;;;;;;63.72;29.02;;;-5.80;99.90;;;;;;5032455;28;20046;-60
2022/12/18 04:21:22;;;;;;;64.72;27.63;;;-5.80;99.90;;;;;;5027722;28;20056;-61
2022/12/18 04:23:49;;;;;;;65.78;27.48;;;-5.80;99.90;;;;;;5050363;28;20534;-61
2022/12/18 04:26:16;;;;;;;62.90;26.17;;;-5.80;99.90;;;;;;5051167;28;20049;-61
2022/12/18 04:28:43;;;;;;;62.10;27.38;;;-5.80;99.90;;;;;;5051008;28;20048;-62
2022/12/18 04:31:10;;;;;;;57.85;27.33;;;-5.90;99.90;;;;;;5050485;28;20416;-61
2022/12/18 04:33:37;;;;;;;69.53;25.10;;;-5.90;99.90;;;;;;5051592;28;20052;-62
2022/12/18 04:36:06;;;;;;;66.18;27.75;;;-5.90;99.90;;;;;;5032413;28;20069;-61
2022/12/18 04:38:33;;;;;;;57.75;25.48;;;-5.90;99.90;;;;;;5031875;28;20053;-61
2022/12/18 04:41:00;;;;;;;65.05;25.88;;;-6.00;99.90;;;;;;5032308;28;20053;-61
2022/12/18 04:43:27;;;;;;;60.25;26.05;;;-6.00;99.90;;;;;;5016520;28;20179;-62
2022/12/18 04:45:53;;;;;;;58.30;26.30;;;-6.00;99.90;;;;;;5050670;28;20045;-61
2022/12/18 04:48:21;;;;;;;65.43;25.73;;;-6.00;99.90;;;;;;5050290;28;20045;-62
2022/12/18 04:50:49;;;;;;;61.53;27.92;;;-6.00;99.90;;;;;;5013988;28;20053;-62
2022/12/18 04:53:17;;;;;;;57.20;28.83;;;-6.10;99.90;;;;;;5014259;28;20053;-62
2022/12/18 04:55:44;;;;;;;63.45;26.48;;;-6.10;99.90;;;;;;5029690;28;20409;-62
2022/12/18 04:58:11;;;;;;;55.28;24.83;;;-6.10;99.90;;;;;;5049684;28;20087;-62
2022/12/18 05:00:37;;;;;;;63.13;26.85;;;-6.10;99.90;;;;;;5050085;28;20460;-60
2022/12/18 05:03:04;;;;;;;58.13;25.75;;;-6.10;99.90;;;;;;5049883;28;20061;-62
2022/12/18 05:05:31;;;;;;;62.08;28.33;;;-6.10;99.90;;;;;;5049223;28;20049;-61
2022/12/18 05:07:58;;;;;;;65.70;27.67;;;-6.10;99.90;;;;;;5014130;28;20445;-61
2022/12/18 05:10:27;;;;;;;69.80;29.25;;;-6.10;99.90;;;;;;5026801;28;20440;-60
2022/12/18 05:12:59;;;;;;;64.00;28.38;;;-6.10;99.90;;;;;;5014534;28;20045;-63
2022/12/18 05:15:28;;;;;;;59.00;25.52;;;-6.10;99.90;;;;;;5031205;28;20127;-62
2022/12/18 05:17:55;;;;;;;71.18;28.13;;;-6.20;99.90;;;;;;5027531;28;20044;-63
2022/12/18 05:20:22;;;;;;;57.08;26.70;;;-6.20;99.90;;;;;;5049132;28;20041;-63
2022/12/18 05:22:49;;;;;;;72.55;26.98;;;-6.20;99.90;;;;;;5012122;28;20558;-62
2022/12/18 05:25:16;;;;;;;59.65;25.23;;;-6.20;99.90;;;;;;5049677;28;20049;-62
2022/12/18 05:27:45;;;;;;;54.80;24.60;;;-6.20;99.90;;;;;;5049698;28;20098;-62
2022/12/18 05:30:12;;;;;;;62.25;25.02;;;-6.20;99.90;;;;;;5049482;28;20049;-62
2022/12/18 05:32:39;;;;;;;60.30;24.92;;;-6.20;99.90;;;;;;5049525;28;20107;-62
2022/12/18 05:35:11;;;;;;;54.13;23.80;;;-6.20;99.90;;;;;;5011957;28;20049;-62
2022/12/18 05:37:38;;;;;;;57.30;24.63;;;-6.20;99.90;;;;;;5031564;28;20111;-62
2022/12/18 05:40:06;;;;;;;61.50;25.52;;;-6.20;99.90;;;;;;5030973;28;20045;-62
2022/12/18 05:42:33;;;;;;;57.40;24.70;;;-6.10;99.90;;;;;;5031787;28;20190;-62
2022/12/18 05:45:01;;;;;;;48.67;24.77;;;-6.10;99.90;;;;;;5054361;28;20045;-61
2022/12/18 05:47:29;;;;;;;58.22;24.08;;;-6.10;99.90;;;;;;5053675;28;20053;-62
2022/12/18 05:49:56;;;;;;;58.13;25.13;;;-6.10;99.90;;;;;;5015954;28;20057;-62
2022/12/18 05:52:23;;;;;;;52.92;23.65;;;-6.10;99.90;;;;;;5054018;28;20053;-62
2022/12/18 05:54:50;;;;;;;55.67;22.58;;;-6.20;99.90;;;;;;5030969;28;20444;-63
2022/12/18 05:57:17;;;;;;;58.25;25.30;;;-6.20;99.90;;;;;;5053716;28;20492;-62
2022/12/18 05:59:44;;;;;;;51.45;23.13;;;-6.20;99.90;;;;;;5037211;28;20057;-62
2022/12/18 06:02:12;;;;;;;58.25;25.00;;;-6.20;99.90;;;;;;5002464;28;20045;-63
2022/12/18 06:04:39;;;;;;;55.33;24.23;;;-6.30;99.90;;;;;;5010710;28;20053;-62
2022/12/18 06:07:06;;;;;;;56.75;24.42;;;-6.30;99.90;;;;;;5010965;28;20057;-62
2022/12/18 06:09:33;;;;;;;58.30;23.90;;;-6.30;99.90;;;;;;5036036;28;20057;-62
2022/12/18 06:12:00;;;;;;;51.40;23.60;;;-6.30;99.90;;;;;;5011202;28;20053;-62
2022/12/18 06:14:27;;;;;;;47.88;22.92;;;-6.40;99.90;;;;;;5010396;28;20181;-62
2022/12/18 06:16:53;;;;;;;59.10;21.85;;;-6.40;99.90;;;;;;5010887;28;20045;-62
2022/12/18 06:19:22;;;;;;;53.22;23.65;;;-6.40;99.90;;;;;;5032621;28;20104;-62
2022/12/18 06:21:49;;;;;;;47.75;24.17;;;-6.30;99.90;;;;;;5013131;28;20152;-62
2022/12/18 06:24:16;;;;;;;54.58;24.30;;;-6.40;99.90;;;;;;5027401;28;20041;-62
2022/12/18 06:26:42;;;;;;;53.83;23.95;;;-6.40;99.90;;;;;;5011588;28;20045;-62
2022/12/18 06:29:09;;;;;;;50.50;21.13;;;-6.40;99.90;;;;;;5013736;28;20053;-62
2022/12/18 06:31:37;;;;;;;58.72;22.65;;;-6.40;99.90;;;;;;5033720;28;20111;-62
2022/12/18 06:34:05;;;;;;;51.80;22.95;;;-6.40;99.90;;;;;;5030215;28;20049;-62
2022/12/18 06:36:33;;;;;;;51.25;22.20;;;-6.40;99.90;;;;;;5018588;28;20045;-62
2022/12/18 06:39:00;;;;;;;56.03;22.83;;;-6.40;99.90;;;;;;5009712;28;20057;-61
2022/12/18 06:41:27;;;;;;;49.33;21.00;;;-6.40;99.90;;;;;;5027668;28;20057;-62
2022/12/18 06:43:54;;;;;;;41.22;20.08;;;-6.40;99.90;;;;;;5028704;28;20543;-62
2022/12/18 06:46:21;;;;;;;41.53;21.90;;;-6.40;99.90;;;;;;5011469;28;20041;-61
2022/12/18 06:48:49;;;;;;;47.00;21.73;;;-6.40;99.90;;;;;;5009823;28;20739;-61
2022/12/18 06:51:18;;;;;;;44.88;20.27;;;-6.30;99.90;;;;;;5010502;28;20085;-61
2022/12/18 06:53:47;;;;;;;42.33;20.73;;;-6.40;99.90;;;;;;5013859;28;20575;-61
2022/12/18 06:56:14;;;;;;;49.40;21.52;;;-6.40;99.90;;;;;;4996120;28;20468;-61
2022/12/18 06:58:41;;;;;;;43.15;20.23;;;-6.40;99.90;;;;;;5031607;28;20467;-61
2022/12/18 07:01:09;;;;;;;41.80;20.42;;;-6.40;99.90;;;;;;5026994;28;20111;-61
2022/12/18 07:03:36;;;;;;;48.85;20.50;;;-6.40;99.90;;;;;;5011337;28;20054;-60
2022/12/18 07:06:04;;;;;;;44.05;19.13;;;-6.40;99.90;;;;;;5030411;28;20100;-61
2022/12/18 07:08:31;;;;;;;44.55;19.25;;;-6.40;99.90;;;;;;5031106;28;20053;-61
2022/12/18 07:10:59;;;;;;;45.45;19.95;;;-6.40;99.90;;;;;;5029043;28;20056;-61
2022/12/18 07:13:26;;;;;;;41.63;20.38;;;-6.40;99.90;;;;;;5031975;28;20061;-61
2022/12/18 07:15:53;;;;;;;40.10;18.20;;;-6.40;99.90;;;;;;5030597;28;20038;-61
2022/12/18 07:18:20;;;;;;;37.38;18.38;;;-6.40;99.90;;;;;;5028468;28;20123;-61
2022/12/18 07:20:47;;;;;;;35.42;19.00;;;-6.30;99.90;;;;;;5028690;28;20048;-62
2022/12/18 07:23:14;;;;;;;37.00;18.98;;;-6.30;99.90;;;;;;5031445;28;20099;-61
2022/12/18 07:25:41;;;;;;;42.70;19.52;;;-6.30;99.90;;;;;;5012993;28;20092;-61
2022/12/18 07:28:09;;;;;;;32.45;17.63;;;-6.30;99.90;;;;;;5026807;28;20041;-61
2022/12/18 07:30:38;;;;;;;37.25;17.83;;;-6.20;99.90;;;;;;5010749;28;20119;-61
2022/12/18 07:33:05;;;;;;;34.50;16.83;;;-6.20;99.90;;;;;;5010504;28;20061;-62
2022/12/18 07:35:33;;;;;;;38.35;17.05;;;-6.10;99.90;;;;;;5029101;28;20045;-61
2022/12/18 07:38:00;;;;;;;42.30;18.33;;;-6.10;99.90;;;;;;5009877;28;20060;-60
2022/12/18 07:40:27;;;;;;;36.03;17.10;;;-6.00;99.90;;;;;;5030503;28;20060;-61
2022/12/18 07:42:53;;;;;;;34.42;17.48;;;-6.00;99.90;;;;;;5027004;28;20060;-61
2022/12/18 07:45:22;;;;;;;34.72;18.58;;;-6.00;99.90;;;;;;5018344;28;20049;-62
2022/12/18 07:47:48;;;;;;;30.83;16.08;;;-5.90;99.90;;;;;;5008395;28;20479;-62
2022/12/18 07:50:16;;;;;;;31.23;16.88;;;-5.90;99.90;;;;;;5008293;28;20045;-61
2022/12/18 07:52:43;;;;;;;36.67;16.58;;;-5.90;99.90;;;;;;5028472;28;20432;-61
2022/12/18 07:55:10;;;;;;;40.63;17.90;;;-5.80;99.90;;;;;;5009222;28;20076;-61
2022/12/18 07:57:36;;;;;;;31.25;15.45;;;-5.80;99.90;;;;;;5011146;28;20475;-61
2022/12/18 08:00:05;;;;;;;37.80;18.42;;;-5.80;99.90;;;;;;5013091;28;20076;-60
2022/12/18 08:02:33;;;;;;;36.15;18.15;;;-5.70;99.90;;;;;;5017233;28;20050;-60
2022/12/18 08:05:00;;;;;;;34.92;16.20;;;-5.70;99.90;;;;;;5009347;28;21277;-61
2022/12/18 08:07:27;;;;;;;33.25;17.10;;;-5.70;99.90;;;;;;5025444;28;20060;-60
2022/12/18 08:09:54;;;;;;;37.33;17.35;;;-5.60;99.90;;;;;;5000237;28;20096;-61
2022/12/18 08:12:20;;;;;;;31.98;15.38;;;-5.60;99.90;;;;;;4999651;28;20073;-60
2022/12/18 08:14:47;;;;;;;38.30;15.90;;;-5.50;99.90;;;;;;5027632;28;20057;-60
2022/12/18 08:17:14;;;;;;;31.10;15.27;;;-5.30;99.90;;;;;;5025383;28;20041;-60
2022/12/18 08:19:42;;;;;;;35.25;16.65;;;-5.10;99.90;;;;;;5009919;28;20057;-60
2022/12/18 08:22:09;;;;;;;34.08;17.17;;;-4.80;99.90;;;;;;5027818;28;20108;-60
2022/12/18 08:24:36;;;;;;;26.73;14.20;;;-4.80;99.90;;;;;;5030111;28;20053;-61
2022/12/18 08:27:03;;;;;;;34.00;15.73;;;-4.70;99.90;;;;;;5010230;28;20059;-61
2022/12/18 08:29:31;;;;;;;26.77;15.73;;;-4.80;99.90;;;;;;5009865;28;20116;-61
2022/12/18 08:31:58;;;;;;;27.05;14.32;;;-4.80;99.90;;;;;;5010626;28;20045;-61
2022/12/18 08:34:25;;;;;;;27.40;14.90;;;-4.70;99.90;;;;;;5025736;28;20064;-62
2022/12/18 08:36:53;;;;;;;24.27;13.82;;;-4.60;99.90;;;;;;5007802;28;20049;-62
2022/12/18 08:39:20;;;;;;;27.63;14.70;;;-4.50;99.90;;;;;;5025558;28;20053;-62
2022/12/18 08:44:37;;;;;;;28.40;13.75;;;-4.50;99.90;;;;;;5027320;28;20054;-62
2022/12/18 08:44:38;;;;;;;27.02;13.85;;;-4.50;99.90;;;;;;5022751;28;20114;-62
2022/12/18 08:47:06;;;;;;;25.30;13.93;;;-4.40;99.90;;;;;;5028678;28;20192;-62
2022/12/18 08:49:33;;;;;;;23.88;12.25;;;-4.40;99.90;;;;;;5027714;28;20096;-62
2022/12/18 08:52:02;;;;;;;25.20;14.35;;;-4.20;99.90;;;;;;5031460;28;20057;-62
2022/12/18 08:54:30;;;;;;;25.95;14.48;;;-4.10;99.90;;;;;;5009689;28;20045;-62
2022/12/18 08:56:57;;;;;;;24.75;13.75;;;-3.90;99.90;;;;;;5030561;28;20114;-62
2022/12/18 08:59:24;;;;;;;24.50;14.15;;;-3.50;99.90;;;;;;5028564;28;20505;-62
2022/12/18 09:01:50;;;;;;;21.63;12.73;;;-3.10;99.90;;;;;;5029248;28;20049;-63
2022/12/18 09:04:18;;;;;;;28.65;13.88;;;-2.80;99.90;;;;;;5026607;28;20553;-62
2022/12/18 09:06:45;;;;;;;24.27;13.43;;;-2.50;99.90;;;;;;5031334;28;20041;-62
2022/12/18 09:09:13;;;;;;;24.20;13.25;;;-2.30;99.90;;;;;;5006648;28;20065;-63
2022/12/18 09:11:40;;;;;;;22.67;13.55;;;-2.10;99.90;;;;;;5023903;28;20042;-62
2022/12/18 09:14:07;;;;;;;26.25;12.88;;;-1.80;99.90;;;;;;5009822;28;20103;-61
2022/12/18 09:16:35;;;;;;;21.00;13.43;;;-1.50;99.90;;;;;;5034102;28;20060;-62
2022/12/18 09:19:04;;;;;;;21.05;12.10;;;-1.20;99.90;;;;;;5012624;28;20057;-62
2022/12/18 09:21:33;;;;;;;19.05;12.23;;;-1.10;99.90;;;;;;5012820;28;20544;-62
2022/12/18 09:24:00;;;;;;;21.75;12.68;;;-1.00;99.90;;;;;;5012424;28;20103;-62
2022/12/18 09:26:29;;;;;;;21.08;12.32;;;-1.00;99.90;;;;;;5012716;28;20076;-62
2022/12/18 09:28:56;;;;;;;22.75;13.38;;;-0.90;99.90;;;;;;5037806;28;20049;-62
2022/12/18 09:31:24;;;;;;;23.33;11.80;;;-0.60;99.90;;;;;;5030207;28;20052;-62
2022/12/18 09:33:51;;;;;;;18.10;11.55;;;-0.40;99.90;;;;;;5010290;28;20049;-62
2022/12/18 09:36:19;;;;;;;21.23;12.52;;;-0.20;99.90;;;;;;5039762;28;20455;-63
2022/12/18 09:38:46;;;;;;;21.45;12.60;;;0.30;99.90;;;;;;5011018;28;20050;-62
2022/12/18 09:41:36;;;;;;;18.55;12.15;;;0.70;99.90;;;;;;5032510;28;20048;-62
2022/12/18 09:44:12;;;;;;;23.83;12.07;;;0.90;99.90;;;;;;5008878;28;20056;-62
2022/12/18 09:46:45;;;;;;;19.80;12.63;;;1.10;99.90;;;;;;5034210;28;20453;-61
2022/12/18 09:49:15;;;;;;;18.92;11.55;;;1.10;99.90;;;;;;5013047;28;20049;-62
2022/12/18 09:51:46;;;;;;;21.63;11.98;;;0.90;99.90;;;;;;5036554;28;20459;-62
2022/12/18 09:54:17;;;;;;;17.45;11.48;;;0.50;99.90;;;;;;5031373;28;20059;-63
2022/12/18 09:56:44;;;;;;;18.83;11.27;;;0.30;99.90;;;;;;5027201;28;20053;-63
2022/12/18 09:59:22;;;;;;;19.13;10.93;;;-0.10;99.90;;;;;;5015664;28;20046;-63
2022/12/18 10:01:49;;;;;;;20.00;12.27;;;-0.80;99.90;;;;;;5013084;28;20057;-63
2022/12/18 10:04:15;;;;;;;21.83;12.35;;;-1.10;99.90;;;;;;5012484;28;20060;-62
2022/12/18 10:06:50;;;;;;;18.08;11.45;;;-1.40;99.90;;;;;;5009189;28;20093;-61
2022/12/18 10:09:27;;;;;;;19.00;11.57;;;-1.40;99.90;;;;;;5009658;28;20065;-62
2022/12/18 10:12:01;;;;;;;22.27;12.68;;;-1.50;99.90;;;;;;5034411;28;20103;-62
2022/12/18 10:14:35;;;;;;;19.55;11.60;;;-1.30;99.90;;;;;;5031694;28;20060;-62
2022/12/18 10:17:15;;;;;;;19.60;11.50;;;-0.90;99.90;;;;;;5015390;28;20041;-62
2022/12/18 10:19:49;;;;;;;18.23;10.40;;;-0.30;99.90;;;;;;5033883;28;20049;-62
2022/12/18 10:22:39;;;;;;;19.25;11.48;;;0.80;99.90;;;;;;5010074;28;20511;-63
2022/12/18 10:25:16;;;;;;;15.35;10.60;;;2.20;99.90;;;;;;5012349;28;20063;-63
2022/12/18 10:27:43;;;;;;;15.57;10.85;;;3.30;99.90;;;;;;5029128;28;20061;-63
2022/12/18 10:30:16;;;;;;;15.65;10.77;;;4.40;99.90;;;;;;5013937;28;20057;-63
2022/12/18 10:32:43;;;;;;;15.98;10.50;;;4.30;99.70;;;;;;5009939;28;20509;-61
2022/12/18 10:35:18;;;;;;;18.38;10.50;;;3.80;99.90;;;;;;5010937;28;20103;-63
2022/12/18 10:38:02;;;;;;;14.93;8.95;;;3.10;99.90;;;;;;5030451;28;20123;-63
2022/12/18 10:40:29;;;;;;;16.27;10.15;;;2.30;99.90;;;;;;5011092;28;20399;-63
2022/12/18 10:43:11;;;;;;;13.35;9.55;;;1.80;99.90;;;;;;5032868;28;20053;-62
2022/12/18 10:45:40;;;;;;;13.95;9.55;;;1.40;99.90;;;;;;5029483;28;20045;-63
2022/12/18 10:48:19;;;;;;;14.07;8.93;;;1.00;99.90;;;;;;5012255;28;20076;-62
2022/12/18 10:50:51;;;;;;;15.70;9.20;;;0.60;99.90;;;;;;5012134;28;20555;-62
2022/12/18 10:53:22;;;;;;;12.80;8.57;;;0.30;99.90;;;;;;5011606;28;20064;-62
2022/12/18 10:55:49;;;;;;;;;;;0.10;99.90;;;;;;5029688;28;20104;-62
2022/12/18 10:58:25;;;;;;;13.77;8.35;;;-0.20;99.90;;;;;;5029462;28;19925;-63
2022/12/18 11:01:13;;;;;;;15.68;8.68;;;-0.40;99.90;;;;;;5033983;28;20091;-63
2022/12/18 11:03:42;;;;;;;14.75;8.07;;;-0.70;99.90;;;;;;5013020;28;20428;-63
2022/12/18 11:06:11;;;;;;;12.93;7.72;;;-0.90;99.90;;;;;;5013459;28;20038;-63
2022/12/18 11:08:38;;;;;;;12.15;7.43;;;-1.10;99.90;;;;;;5029480;28;20061;-63
2022/12/18 11:11:16;;;;;;;14.32;7.82;;;-1.20;99.90;;;;;;5008699;28;20564;-63
2022/12/18 11:13:55;;;;;;;11.85;7.55;;;-1.20;99.90;;;;;;5003501;28;20139;-63
2022/12/18 11:16:23;;;;;;;12.20;6.38;;;-1.40;99.90;;;;;;5013185;28;20037;-62
2022/12/18 11:18:50;;;;;;;12.32;7.55;;;-1.30;99.90;;;;;;5011530;28;20053;-62
2022/12/18 11:21:17;;;;;;;11.40;6.57;;;-1.50;99.90;;;;;;5025835;28;20508;-62
2022/12/18 11:23:48;;;;;;;14.00;7.38;;;-0.60;99.90;;;;;;5008048;28;20064;-62
2022/12/18 11:26:15;;;;;;;12.15;7.07;;;-1.50;99.90;;;;;;5010676;28;20401;-62
2022/12/18 11:28:47;;;;;;;9.63;6.65;;;-1.60;99.90;;;;;;5009998;28;20104;-62
2022/12/18 11:31:21;;;;;;;11.45;6.40;;;-1.60;99.90;;;;;;5008946;28;20103;-62
2022/12/18 11:33:58;;;;;;;9.63;6.13;;;-1.60;99.90;;;;;;5030389;28;20103;-63
2022/12/18 11:36:29;;;;;;;8.90;6.60;;;-1.70;99.90;;;;;;5023915;28;20464;-62
2022/12/18 11:38:58;;;;;;;10.93;6.30;;;-1.70;99.90;;;;;;5027327;28;20451;-63
2022/12/18 11:44:15;;;;;;;9.70;6.25;;;-1.60;99.90;;;;;;5007769;28;20038;-62
2022/12/18 11:46:48;;;;;;;11.57;6.65;;;-1.60;99.90;;;;;;5027547;28;20095;-62
2022/12/18 11:49:24;;;;;;;9.57;6.28;;;-1.60;99.90;;;;;;5023515;28;20093;-62
2022/12/18 11:51:56;;;;;;;11.00;6.32;;;-1.70;99.90;;;;;;5008620;28;20080;-63
2022/12/18 11:54:23;;;;;;;11.10;7.18;;;-1.70;99.90;;;;;;5027370;28;20115;-63
2022/12/18 11:56:54;;;;;;;10.45;5.85;;;-1.70;99.90;;;;;;5011742;28;20115;-63
2022/12/18 11:59:34;;;;;;;9.88;5.95;;;-1.70;99.90;;;;;;5026622;28;20052;-62
2022/12/18 12:02:15;;;;;;;9.02;5.30;;;-1.70;99.90;;;;;;5013032;28;20100;-62
2022/12/18 12:04:59;;;;;;;6.60;5.13;;;-1.70;99.90;;;;;;5009871;28;20508;-62
2022/12/18 12:07:39;;;;;;;8.65;5.65;;;-1.70;99.90;;;;;;5009560;28;20049;-62
2022/12/18 12:10:21;;;;;;;8.88;5.53;;;-1.60;99.90;;;;;;5005879;28;20112;-63
2022/12/18 12:13:04;;;;;;;9.07;6.25;;;-1.60;99.90;;;;;;5011794;28;20055;-62
2022/12/18 12:15:41;;;;;;;9.88;6.40;;;-1.50;99.90;;;;;;5032968;28;20053;-62
2022/12/18 12:18:22;;;;;;;8.32;5.53;;;-1.50;99.90;;;;;;5027436;28;20371;-62
2022/12/18 12:20:58;;;;;;;8.90;5.80;;;-1.50;99.90;;;;;;5028449;28;20492;-62
2022/12/18 12:23:34;;;;;;;8.65;5.13;;;-1.40;99.90;;;;;;5021408;28;20103;-62
2022/12/18 12:26:06;;;;;;;8.88;5.32;;;-1.40;99.90;;;;;;5021792;28;20045;-62
2022/12/18 12:28:58;;;;;;;9.77;5.40;;;-1.40;99.90;;;;;;5032216;28;20046;-62
2022/12/18 12:31:39;;;;;;;9.65;5.53;;;-1.40;99.90;;;;;;5029104;28;20050;-63
2022/12/18 12:34:16;;;;;;;8.88;5.38;;;-1.40;99.90;;;;;;5012356;28;20064;-62
2022/12/18 12:36:57;;;;;;;7.78;4.72;;;-1.30;99.90;;;;;;5037095;28;20053;-62
2022/12/18 12:39:29;;;;;;;10.57;5.97;;;-1.30;99.90;;;;;;5033259;28;20049;-62
2022/12/18 12:44:47;;;;;;;11.27;5.68;;;-1.20;99.90;;;;;;5035820;28;20042;-63
2022/12/18 12:47:18;;;;;;;7.75;5.40;;;-1.20;99.90;;;;;;5008732;28;20042;-62
2022/12/18 12:49:47;;;;;;;9.82;5.65;;;-1.20;99.90;;;;;;5012064;28;20057;-63